Time;durP1;ratioP1;P1;durP2;ratioP2;P2;SDS_P1;SDS_P2;PMS_P1;PMS_P2;Temp;Humidity;BMP_temperature;BMP_pressure;BME280_temperature;BME280_humidity;BME280_pressure;Samples;Min_cycle;Max_cycle;Signal;HPM_P1;HPM_P2
2023/09/11 00:02:21;;;;;;;0.10;0.10;;;;;;;;;;5012167;28;20429;-83
2023/09/11 00:04:46;;;;;;;;;;;;;;;19.22;nan;100281.25;5005618;28;20026;-84
2023/09/11 00:07:11;;;;;;;0.07;0.07;;;;;;;19.12;nan;100290.81;5027564;28;19913;-86
2023/09/11 00:09:36;;;;;;;0.10;0.10;;;;;;;;;;5014741;28;20426;-82
2023/09/11 00:12:02;;;;;;;;;;;;;;;19.04;nan;100279.28;5031226;28;20272;-86
2023/09/11 00:14:27;;;;;;;;;;;;;;;18.97;nan;100277.66;5029779;28;19995;-83
2023/09/11 00:16:52;;;;;;;;;;;;;;;18.84;nan;100268.66;5032326;28;19913;-82
2023/09/11 00:19:18;;;;;;;;;;;;;;;18.78;nan;100257.94;5030565;28;19917;-84
2023/09/11 00:21:43;;;;;;;;;;;;;;;18.76;nan;100260.88;5029452;28;20060;-83
2023/09/11 00:24:08;;;;;;;;;;;;;;;18.74;nan;100257.53;5032195;28;19913;-83
2023/09/11 00:26:33;;;;;;;0.10;0.10;;;;;;;;;;5015535;28;19913;-84
2023/09/11 00:28:58;;;;;;;;;;;;;;;18.82;nan;100253.81;5039324;28;20434;-83
2023/09/11 00:31:23;;;;;;;0.10;0.10;;;;;;;;;;5033508;28;19924;-83
2023/09/11 00:33:49;;;;;;;0.10;0.10;;;;;;;;;;5014745;28;20442;-83
2023/09/11 00:36:14;;;;;;;0.03;0.03;;;;;;;;;;5038927;28;20747;-85
2023/09/11 00:38:39;;;;;;;0.00;0.00;;;;;;;;;;5035859;28;20037;-84
2023/09/11 00:41:04;;;;;;;0.00;0.00;;;;;;;;;;5033193;28;20557;-85
2023/09/11 00:43:29;;;;;;;0.00;0.00;;;;;;;18.89;nan;100217.94;5035306;28;20073;-83
2023/09/11 00:45:56;;;;;;;0.10;0.10;;;;;;;;;;5029139;28;20102;-84
2023/09/11 00:48:22;;;;;;;0.10;0.10;;;;;;;;;;5011640;28;20292;-83
2023/09/11 00:50:47;;;;;;;0.03;0.03;;;;;;;;;;5013085;28;20622;-86
2023/09/11 00:53:13;;;;;;;0.10;0.10;;;;;;;18.58;nan;100252.66;5029180;28;20045;-85
2023/09/11 00:55:38;;;;;;;0.10;0.10;;;;;;;;;;5030540;28;20142;-82
2023/09/11 00:58:03;;;;;;;0.10;0.10;;;;;;;18.43;nan;100244.88;5030376;28;20038;-83
2023/09/11 01:00:29;;;;;;;0.10;0.10;;;;;;;18.40;nan;100245.28;5026644;28;20497;-84
2023/09/11 01:02:54;;;;;;;;;;;;;;;18.40;nan;100251.47;5013159;28;20056;-85
2023/09/11 01:05:21;;;;;;;;;;;;;;;18.39;nan;100249.81;5023151;28;19917;-83
2023/09/11 01:07:46;;;;;;;;;;;;;;;18.36;nan;100238.72;5022404;28;19913;-82
2023/09/11 01:10:11;;;;;;;;;;;;;;;18.26;nan;100236.47;5021915;28;19917;-83
2023/09/11 01:12:37;;;;;;;;;;;;;;;18.13;nan;100233.81;5012303;28;20008;-84
2023/09/11 01:15:04;;;;;;;;;;;;;;;18.00;nan;100238.16;5030816;28;19933;-83
2023/09/11 01:17:44;;;;;;;;;;;;;;;17.90;nan;100247.63;5030630;28;19999;-83
2023/09/11 01:20:28;;;;;;;;;;;;;;;17.83;nan;100242.28;5029715;28;20306;-83
2023/09/11 01:22:56;;;;;;;;;;;;;;;17.81;nan;100241.66;5027014;28;20458;-84
2023/09/11 01:25:35;;;;;;;;;;;;;;;17.84;nan;100235.91;5030640;28;19920;-84
2023/09/11 01:28:29;;;;;;;;;;;;;;;17.83;nan;100251.13;5030763;28;19917;-83
2023/09/11 01:30:54;;;;;;;;;;;;;;;17.75;nan;100227.22;5013433;28;19921;-83
2023/09/11 01:33:20;;;;;;;;;;;;;;;17.67;nan;100248.00;5027307;28;20471;-83
2023/09/11 01:35:45;;;;;;;;;;;;;;;17.60;nan;100235.44;5028568;28;19921;-84
2023/09/11 01:38:10;;;;;;;;;;;;;;;17.56;nan;100233.38;5030198;28;20019;-86
2023/09/11 01:40:39;;;;;;;0.10;0.10;;;;;;;17.57;nan;100235.06;5033852;28;19916;-85
2023/09/11 01:43:08;;;;;;;0.10;0.10;;;;;;;17.59;nan;100236.50;5032625;28;20021;-83
2023/09/11 01:45:35;;;;;;;0.10;0.10;;;;;;;17.60;nan;100278.22;5029969;28;20033;-84
2023/09/11 01:48:01;;;;;;;0.10;0.10;;;;;;;;;;5037344;28;20195;-83
2023/09/11 01:50:27;;;;;;;;;;;;;;;17.59;nan;100239.16;5031920;28;20038;-83
2023/09/11 01:52:52;;;;;;;;;;;;;;;17.54;nan;100224.75;5028926;28;20008;-84
2023/09/11 01:55:18;;;;;;;;;;;;;;;17.46;nan;100228.44;5035013;28;19940;-82
2023/09/11 01:57:43;;;;;;;;;;;;;;;17.40;nan;100229.28;5033614;28;20237;-84
2023/09/11 02:00:08;;;;;;;;;;;;;;;17.37;nan;100229.66;5032638;28;20184;-81
2023/09/11 02:02:34;;;;;;;;;;;;;;;17.33;nan;100229.25;5036588;28;19944;-81
2023/09/11 02:04:59;;;;;;;;;;;;;;;17.28;nan;100230.88;5021575;28;19981;-81
2023/09/11 02:07:24;;;;;;;;;;;;;;;17.23;nan;100223.47;5037086;28;19917;-83
2023/09/11 02:09:49;;;;;;;;;;;;;;;17.14;nan;100225.53;5036568;28;20024;-83
2023/09/11 02:12:14;;;;;;;;;;;;;;;17.09;nan;100227.13;5009439;28;19921;-82
2023/09/11 02:14:40;;;;;;;;;;;;;;;17.06;nan;100231.03;5018647;28;19963;-82
2023/09/11 02:17:05;;;;;;;;;;;;;;;17.02;nan;100229.81;5026706;28;19917;-84
2023/09/11 02:19:31;;;;;;;;;;;;;;;16.99;nan;100227.53;5036336;28;19975;-83
2023/09/11 02:21:56;;;;;;;;;;;;;;;16.96;nan;100227.94;5036816;28;19970;-83
2023/09/11 02:24:21;;;;;;;;;;;;;;;16.95;nan;100227.13;5040562;28;19917;-84
2023/09/11 02:26:46;;;;;;;;;;;;;;;16.94;nan;100229.97;5040782;28;19917;-81
2023/09/11 02:29:12;;;;;;;;;;;;;;;16.89;nan;100237.78;5047333;28;20003;-83
2023/09/11 02:31:37;;;;;;;;;;;;;;;16.83;nan;100226.06;5037009;28;19921;-83
2023/09/11 02:34:02;;;;;;;;;;;;;;;16.75;nan;100220.84;5041437;28;19917;-81
2023/09/11 02:36:27;;;;;;;;;;;;;;;16.70;nan;100224.09;5036024;28;20292;-83
2023/09/11 02:38:52;;;;;;;;;;;;;;;16.65;nan;100220.41;5039043;28;19928;-82
2023/09/11 02:41:17;;;;;;;;;;;;;;;16.59;nan;100226.53;5036760;28;20163;-83
2023/09/11 02:43:43;;;;;;;;;;;;;;;16.53;nan;100220.13;5040436;28;19944;-84
2023/09/11 02:46:08;;;;;;;;;;;;;;;16.49;nan;100210.88;5038440;28;20397;-84
2023/09/11 02:48:33;;;;;;;;;;;;;;;;;;5038146;28;19991;-82
2023/09/11 02:50:58;;;;;;;;;;;;;;;16.40;nan;100222.72;5040239;28;19917;-82
2023/09/11 02:53:23;;;;;;;;;;;;;;;16.34;nan;100209.16;5038616;28;19927;-82
2023/09/11 02:55:48;;;;;;;;;;;;;;;16.31;nan;100209.56;5036614;28;19913;-83
2023/09/11 02:58:14;;;;;;;;;;;;;;;16.27;nan;100208.31;5024623;28;19924;-84
2023/09/11 03:00:39;;;;;;;;;;;;;;;16.24;nan;100214.03;5035614;28;19917;-83
2023/09/11 03:03:05;;;;;;;;;;;;;;;16.22;nan;100188.59;5040547;28;20160;-82
2023/09/11 03:05:33;;;;;;;;;;;;;;;16.17;nan;100202.50;5038792;28;19912;-82
2023/09/11 03:08:02;;;;;;;;;;;;;;;16.12;nan;100202.28;5040346;28;19917;-84
2023/09/11 03:10:28;;;;;;;;;;;;;;;16.09;nan;100206.16;5042452;28;19913;-83
2023/09/11 03:12:54;;;;;;;;;;;;;;;16.09;nan;100205.34;5037902;28;19917;-83
2023/09/11 03:15:19;;;;;;;;;;;;;;;16.11;nan;100208.63;5029710;28;19913;-83
2023/09/11 03:17:48;;;;;;;;;;;;;;;16.15;nan;100193.88;5039055;28;19912;-85
2023/09/11 03:20:13;;;;;;;;;;;;;;;16.19;nan;100210.31;5038439;28;19967;-83
2023/09/11 03:22:38;;;;;;;;;;;;;;;16.18;nan;100196.13;5039009;28;19960;-85
2023/09/11 03:25:03;;;;;;;;;;;;;;;16.16;nan;100200.88;5029204;28;20000;-84
2023/09/11 03:27:29;;;;;;;;;;;;;;;16.16;nan;100192.88;5020800;28;20007;-82
2023/09/11 03:29:54;;;;;;;;;;;;;;;16.12;nan;100194.28;5037898;28;19929;-84
2023/09/11 03:32:19;;;;;;;;;;;;;;;16.07;nan;100196.72;5027873;28;19949;-84
2023/09/11 03:34:45;;;;;;;;;;;;;;;16.02;nan;100189.28;5035495;28;19917;-84
2023/09/11 03:37:10;;;;;;;;;;;;;;;15.92;nan;100194.97;5028191;28;20081;-84
2023/09/11 03:39:35;;;;;;;;;;;;;;;15.87;nan;100186.75;5038194;28;19913;-83
2023/09/11 03:42:00;;;;;;;;;;;;;;;15.82;nan;100194.47;5015325;28;19968;-84
2023/09/11 03:44:25;;;;;;;;;;;;;;;15.79;nan;100189.53;5013368;28;20311;-83
2023/09/11 03:46:50;;;;;;;;;;;;;;;15.75;nan;100177.59;5013372;28;19917;-83
2023/09/11 03:49:16;;;;;;;;;;;;;;;15.70;nan;100174.69;5037172;28;19924;-83
2023/09/11 03:51:41;;;;;;;;;;;;;;;15.65;nan;100193.09;5027565;28;19933;-85
2023/09/11 03:54:08;;;;;;;;;;;;;;;15.60;nan;100185.66;5041196;28;19960;-83
2023/09/11 03:56:33;;;;;;;;;;;;;;;15.57;nan;100191.41;5040414;28;19917;-83
2023/09/11 03:58:58;;;;;;;;;;;;;;;15.57;nan;100179.91;5035910;28;20417;-84
2023/09/11 04:01:24;;;;;;;;;;;;;;;15.58;nan;100160.22;5018010;28;19917;-83
2023/09/11 04:03:49;;;;;;;;;;;;;;;15.59;nan;100162.72;5016574;28;19995;-83
2023/09/11 04:06:14;;;;;;;;;;;;;;;15.60;nan;100168.88;5043721;28;20292;-83
2023/09/11 04:08:40;;;;;;;;;;;;;;;15.61;nan;100175.81;5036660;28;20374;-83
2023/09/11 04:11:05;;;;;;;;;;;;;;;15.57;nan;100156.75;5038721;28;19928;-83
2023/09/11 04:13:30;;;;;;;;;;;;;;;;;;5034859;28;20258;-83
2023/09/11 04:15:55;;;;;;;;;;;;;;;15.56;nan;100168.41;5034641;28;19979;-84
2023/09/11 04:18:20;;;;;;;;;;;;;;;15.56;nan;100178.25;5032672;28;19928;-83
2023/09/11 04:20:45;;;;;;;;;;;;;;;15.53;nan;100173.31;5035009;28;20167;-83
2023/09/11 04:23:11;;;;;;;;;;;;;;;15.50;nan;100169.19;5034544;28;19937;-83
2023/09/11 04:25:36;;;;;;;;;;;;;;;15.49;nan;100163.06;5015031;28;19952;-81
2023/09/11 04:28:02;;;;;;;;;;;;;;;15.46;nan;100173.25;5033949;28;19954;-84
2023/09/11 04:30:27;;;;;;;;;;;;;;;15.41;nan;100183.66;5036774;28;19960;-84
2023/09/11 04:32:52;;;;;;;;;;;;;;;15.39;nan;100178.53;5033671;28;20007;-85
2023/09/11 04:35:18;;;;;;;;;;;;;;;15.41;nan;100181.00;5019352;28;20128;-84
2023/09/11 04:37:44;;;;;;;;;;;;;;;15.46;nan;100175.91;5036505;28;19947;-83
2023/09/11 04:40:09;;;;;;;;;;;;;;;15.45;nan;100179.63;5016390;28;19917;-84
2023/09/11 04:42:35;;;;;;;;;;;;;;;15.39;nan;100178.53;5033707;28;19944;-84
2023/09/11 04:45:00;;;;;;;;;;;;;;;;;;5035386;28;19921;-83
2023/09/11 04:47:26;;;;;;;;;;;;;;;;;;5018479;28;19928;-84
2023/09/11 04:49:51;;;;;;;;;;;;;;;;;;5034294;28;19919;-83
2023/09/11 04:52:16;;;;;;;;;;;;;;;15.27;nan;100185.38;5033225;28;19928;-84
2023/09/11 04:54:41;;;;;;;;;;;;;;;15.25;nan;100193.59;5017267;28;19920;-84
2023/09/11 04:57:06;;;;;;;;;;;;;;;15.24;nan;100191.09;5035754;28;19927;-84
2023/09/11 04:59:31;;;;;;;;;;;;;;;15.20;nan;100193.31;5019054;28;20201;-83
2023/09/11 05:01:57;;;;;;;;;;;;;;;15.18;nan;100197.19;5035013;28;19913;-85
2023/09/11 05:04:22;;;;;;;;;;;;;;;15.17;nan;100201.69;5035448;28;19968;-85
2023/09/11 05:06:47;;;;;;;;;;;;;;;15.17;nan;100191.03;5033143;28;19927;-85
2023/09/11 05:09:12;;;;;;;;;;;;;;;15.19;nan;100209.50;5034719;28;19916;-84
2023/09/11 05:11:37;;;;;;;;;;;;;;;15.20;nan;100201.28;5017934;28;20533;-83
2023/09/11 05:14:03;;;;;;;;;;;;;;;15.25;nan;100193.59;5033952;28;19988;-84
2023/09/11 05:16:28;;;;;;;;;;;;;;;15.30;nan;100190.31;5020672;28;19917;-84
2023/09/11 05:18:53;;;;;;;;;;;;;;;15.34;nan;100206.75;5017006;28;19927;-84
2023/09/11 05:21:18;;;;;;;;;;;;;;;15.35;nan;100193.25;5039364;28;19917;-84
2023/09/11 05:23:44;;;;;;;;;;;;;;;15.36;nan;100200.22;5022886;28;20407;-85
2023/09/11 05:26:09;;;;;;;;;;;;;;;15.38;nan;100216.03;5034989;28;19920;-83
2023/09/11 05:28:35;;;;;;;;;;;;;;;15.40;nan;100196.19;5034523;28;20048;-84
2023/09/11 05:31:00;;;;;;;;;;;;;;;15.47;nan;100209.56;5035138;28;19924;-84
2023/09/11 05:33:25;;;;;;;;;;;;;;;15.53;nan;100202.63;5016944;28;20193;-83
2023/09/11 05:35:50;;;;;;;;;;;;;;;;;;5017034;28;19923;-82
2023/09/11 05:38:15;;;;;;;;;;;;;;;15.65;nan;100214.41;5015926;28;19920;-84
2023/09/11 05:40:40;;;;;;;;;;;;;;;15.72;nan;100215.31;5020989;28;19921;-84
2023/09/11 05:43:06;;;;;;;;;;;;;;;15.77;nan;100215.56;5038315;28;20405;-84
2023/09/11 05:45:31;;;;;;;;;;;;;;;15.83;nan;100212.13;5020408;28;20587;-84
2023/09/11 05:47:56;;;;;;;;;;;;;;;15.92;nan;100210.13;5025939;28;20204;-84
2023/09/11 05:50:21;;;;;;;;;;;;;;;16.06;nan;100195.03;5024123;28;19913;-83
2023/09/11 05:52:46;;;;;;;;;;;;;;;16.21;nan;100190.44;5039224;28;20591;-85
2023/09/11 05:55:11;;;;;;;;;;;;;;;16.44;nan;100226.66;5022962;28;20401;-84
2023/09/11 05:57:37;;;;;;;;;;;;;;;16.83;nan;100225.22;5040117;28;20490;-82
2023/09/11 06:00:09;;;;;;;;;;;;;;;17.37;nan;100248.38;5044991;28;20290;-83
2023/09/11 06:02:34;;;;;;;;;;;;;;;18.00;nan;100240.81;5012026;28;19917;-83
2023/09/11 06:04:59;;;;;;;;;;;;;;;18.56;nan;100233.28;5038360;28;20312;-85
2023/09/11 06:07:25;;;;;;;;;;;;;;;19.03;nan;100261.56;5034923;28;19941;-84
2023/09/11 06:09:50;;;;;;;;;;;;;;;19.47;nan;100267.06;5018644;28;20297;-84
2023/09/11 06:12:15;;;;;;;;;;;;;;;19.90;nan;100261.84;5026384;28;19924;-82
2023/09/11 06:14:40;;;;;;;;;;;;;;;20.33;nan;100279.81;5020256;28;19917;-84
2023/09/11 06:17:05;;;;;;;;;;;;;;;20.78;nan;100284.09;5038332;28;19924;-84
2023/09/11 06:19:31;;;;;;;;;;;;;;;21.23;nan;100280.22;5026997;28;19956;-84
2023/09/11 06:21:56;;;;;;;;;;;;;;;21.74;nan;100266.25;5016034;28;19917;-85
2023/09/11 06:24:21;;;;;;;;;;;;;;;22.26;nan;100285.28;5042255;28;19948;-82
2023/09/11 06:26:46;;;;;;;;;;;;;;;22.68;nan;100293.19;5042379;28;19913;-83
2023/09/11 06:29:12;;;;;;;;;;;;;;;22.98;nan;100302.16;5039051;28;19928;-82
2023/09/11 06:31:38;;;;;;;;;;;;;;;23.21;nan;100315.56;5021446;28;19931;-84
2023/09/11 06:34:03;;;;;;;;;;;;;;;23.40;nan;100316.19;5020753;28;19971;-84
2023/09/11 06:36:28;;;;;;;;;;;;;;;23.55;nan;100307.56;5014028;28;19917;-84
2023/09/11 06:38:53;;;;;;;;;;;;;;;23.67;nan;100316.44;5018572;28;19917;-84
2023/09/11 06:41:19;;;;;;;;;;;;;;;23.80;nan;100319.91;5036937;28;20465;-82
2023/09/11 06:43:45;;;;;;;;;;;;;;;23.96;nan;100324.50;5037291;28;19925;-83
2023/09/11 06:46:11;;;;;;;;;;;;;;;24.13;nan;100321.78;5036841;28;19917;-84
2023/09/11 06:48:36;;;;;;;;;;;;;;;24.31;nan;100316.13;5037260;28;19967;-84
2023/09/11 06:51:01;;;;;;;;;;;;;;;24.47;nan;100313.66;5017681;28;19929;-83
2023/09/11 06:53:27;;;;;;;;;;;;;;;24.70;nan;100313.44;5037972;28;20389;-85
2023/09/11 06:55:53;;;;;;;;;;;;;;;24.91;nan;100329.94;5015593;28;19944;-86
2023/09/11 06:58:18;;;;;;;;;;;;;;;25.12;nan;100323.69;5033273;28;19917;-85
2023/09/11 07:00:43;;;;;;;;;;;;;;;25.35;nan;100328.03;5033719;28;19927;-86
2023/09/11 07:03:08;;;;;;;;;;;;;;;25.58;nan;100334.22;5027102;28;19920;-85
2023/09/11 07:05:34;;;;;;;;;;;;;;;25.81;nan;100327.63;5026760;28;19917;-85
2023/09/11 07:08:00;;;;;;;;;;;;;;;26.05;nan;100336.25;5036178;28;20059;-86
2023/09/11 07:10:25;;;;;;;;;;;;;;;26.12;nan;100338.75;5012990;28;19948;-85
2023/09/11 07:12:50;;;;;;;;;;;;;;;26.31;nan;100331.84;5034325;28;19924;-85
2023/09/11 07:15:18;;;;;;;;;;;;;;;26.57;nan;100330.13;5015725;28;19928;-86
2023/09/11 07:17:45;;;;;;;;;;;;;;;26.71;nan;100330.47;5019399;28;19921;-86
2023/09/11 07:20:10;;;;;;;;;;;;;;;26.87;nan;100334.09;5018255;28;19928;-86
2023/09/11 07:22:36;;;;;;;;;;;;;;;27.10;nan;100328.22;4998622;28;19917;-85
2023/09/11 07:25:02;;;;;;;;;;;;;;;27.39;nan;100327.78;5005636;28;20287;-86
2023/09/11 07:27:33;;;;;;;;;;;;;;;27.69;nan;100334.31;5020364;28;20059;-85
2023/09/11 07:29:58;;;;;;;;;;;;;;;27.93;nan;100323.75;5010767;28;19917;-85
2023/09/11 07:32:24;;;;;;;;;;;;;;;28.20;nan;100328.09;5021934;28;20188;-86
2023/09/11 07:34:49;;;;;;;;;;;;;;;28.35;nan;100330.78;5030990;28;19924;-86
2023/09/11 07:37:14;;;;;;;;;;;;;;;28.47;nan;100331.34;5035223;28;19917;-86
2023/09/11 07:39:39;;;;;;;;;;;;;;;28.50;nan;100335.41;5030915;28;19939;-85
2023/09/11 07:42:04;;;;;;;;;;;;;;;28.65;nan;100331.81;5031644;28;20000;-85
2023/09/11 07:44:29;;;;;;;;;;;;;;;28.87;nan;100326.84;5031413;28;19979;-86
2023/09/11 07:46:55;;;;;;;;;;;;;;;29.18;nan;100334.91;5030754;28;19940;-86
2023/09/11 07:49:20;;;;;;;0.00;0.00;;;;;;;;;;5015840;28;19917;-86
2023/09/11 07:51:45;;;;;;;0.00;0.00;;;;;;;;;;5016000;28;20038;-86
2023/09/11 07:54:10;;;;;;;0.00;0.00;;;;;;;30.10;nan;100363.44;5008831;28;20037;-85
2023/09/11 07:56:37;;;;;;;0.00;0.00;;;;;;;30.22;nan;100295.69;5016029;28;20406;-85
2023/09/11 07:59:03;;;;;;;0.00;0.00;;;;;;;30.45;nan;100330.38;5029713;28;20025;-86
2023/09/11 08:01:28;;;;;;;0.00;0.00;;;;;;;30.72;nan;100334.44;5023149;28;20038;-86
2023/09/11 08:03:54;;;;;;;0.00;0.00;;;;;;;;;;5020218;28;20505;-86
2023/09/11 08:06:20;;;;;;;0.00;0.00;;;;;;;31.17;nan;100345.13;5032588;28;20037;-86
2023/09/11 08:08:45;;;;;;;0.00;0.00;;;;;;;;;;5009460;28;20672;-86
2023/09/11 08:11:15;;;;;;;0.00;0.00;;;;;;;31.63;nan;100323.44;5011914;28;20281;-86
2023/09/11 08:13:42;;;;;;;0.00;0.00;;;;;;;31.62;nan;100321.00;5035739;28;20421;-84
2023/09/11 08:16:07;;;;;;;0.00;0.00;;;;;;;31.74;nan;100324.06;5031555;28;20034;-86
2023/09/11 08:18:32;;;;;;;0.00;0.00;;;;;;;;;;5036827;28;20032;-86
2023/09/11 08:20:57;;;;;;;0.00;0.00;;;;;;;31.88;nan;100398.75;5033748;28;20112;-84
2023/09/11 08:23:23;;;;;;;0.00;0.00;;;;;;;;;;5018064;28;20049;-83
2023/09/11 08:25:48;;;;;;;0.00;0.00;;;;;;;32.05;nan;100340.00;5035088;28;20354;-85
2023/09/11 08:28:13;;;;;;;0.00;0.00;;;;;;;32.40;nan;100351.41;5032166;28;20041;-85
2023/09/11 08:30:39;;;;;;;0.00;0.00;;;;;;;32.82;nan;100347.59;5031994;28;20033;-84
2023/09/11 08:33:04;;;;;;;0.00;0.00;;;;;;;;;;5039835;28;20037;-85
2023/09/11 08:35:30;;;;;;;0.00;0.00;;;;;;;33.03;nan;100401.97;5026578;28;20065;-85
2023/09/11 08:37:56;;;;;;;0.00;0.00;;;;;;;33.30;nan;100351.78;5018278;28;20037;-84
2023/09/11 08:40:28;;;;;;;0.00;0.00;;;;;;;33.52;nan;100375.72;5032289;28;20036;-84
2023/09/11 08:42:54;;;;;;;0.00;0.00;;;;;;;33.83;nan;100348.41;5035037;28;20262;-83
2023/09/11 08:45:20;;;;;;;0.00;0.00;;;;;;;34.01;nan;100343.81;5034711;28;20446;-84
2023/09/11 08:47:48;;;;;;;0.00;0.00;;;;;;;34.28;nan;100345.63;5033131;28;20037;-84
2023/09/11 08:50:16;;;;;;;0.00;0.00;;;;;;;34.37;nan;100341.00;5013632;28;20513;-85
2023/09/11 08:52:42;;;;;;;0.00;0.00;;;;;;;34.67;nan;100376.97;5013679;28;20045;-84
2023/09/11 08:55:11;;;;;;;0.00;0.00;;;;;;;34.93;nan;100340.53;5013912;28;20052;-85
2023/09/11 08:57:40;;;;;;;0.00;0.00;;;;;;;35.03;nan;100329.22;5015538;28;20111;-84
2023/09/11 09:00:11;;;;;;;0.00;0.00;;;;;;;35.24;nan;100335.75;5031806;28;20041;-84
2023/09/11 09:02:36;;;;;;;0.00;0.00;;;;;;;;;;5030992;28;20513;-85
2023/09/11 09:05:03;;;;;;;0.00;0.00;;;;;;;35.77;nan;100349.50;5030851;28;20033;-85
2023/09/11 09:07:31;;;;;;;0.00;0.00;;;;;;;36.22;nan;100338.91;5030678;28;20079;-84
2023/09/11 09:09:57;;;;;;;0.00;0.00;;;;;;;36.18;nan;100339.91;5012445;28;20035;-84
2023/09/11 09:12:23;;;;;;;0.00;0.00;;;;;;;36.30;nan;100337.25;5009844;28;20062;-84
2023/09/11 09:14:49;;;;;;;0.00;0.00;;;;;;;36.40;nan;100338.84;5029463;28;20453;-83
2023/09/11 09:17:14;;;;;;;0.00;0.00;;;;;;;36.60;nan;100379.44;5035363;28;20049;-84
2023/09/11 09:19:40;;;;;;;0.00;0.00;;;;;;;36.53;nan;100335.84;5024638;28;20064;-84
2023/09/11 09:22:05;;;;;;;0.00;0.00;;;;;;;;;;5036891;28;20041;-85
2023/09/11 09:24:34;;;;;;;0.00;0.00;;;;;;;37.04;nan;100365.44;5030048;28;20091;-85
2023/09/11 09:27:01;;;;;;;0.00;0.00;;;;;;;37.33;nan;100332.31;5017311;28;20280;-85
2023/09/11 09:29:33;;;;;;;0.00;0.00;;;;;;;37.88;nan;100335.06;5017541;28;20122;-84
2023/09/11 09:32:02;;;;;;;0.00;0.00;;;;;;;38.22;nan;100343.00;5028204;28;20064;-85
2023/09/11 09:34:28;;;;;;;0.00;0.00;;;;;;;38.50;nan;100333.25;5017833;28;20037;-84
2023/09/11 09:36:54;;;;;;;0.00;0.00;;;;;;;38.72;nan;100318.19;5028657;28;20030;-83
2023/09/11 09:39:20;;;;;;;0.00;0.00;;;;;;;38.94;nan;100319.66;5029537;28;20105;-85
2023/09/11 09:41:56;;;;;;;0.00;0.00;;;;;;;39.36;nan;100322.13;5015522;28;20164;-84
2023/09/11 09:44:31;;;;;;;0.00;0.00;;;;;;;39.44;nan;100310.88;5027420;28;20034;-85
2023/09/11 09:47:06;;;;;;;0.00;0.00;;;;;;;38.93;nan;100321.63;5028208;28;20511;-83
2023/09/11 09:49:41;;;;;;;0.00;0.00;;;;;;;39.06;nan;100347.28;5029589;28;20120;-82
2023/09/11 09:52:07;;;;;;;0.00;0.00;;;;;;;39.55;nan;100307.63;5017203;28;20436;-84
2023/09/11 09:54:46;;;;;;;0.00;0.00;;;;;;;40.21;nan;100308.94;5024709;28;20125;-84
2023/09/11 09:57:16;;;;;;;0.00;0.00;;;;;;;40.74;nan;100301.16;5028328;28;20296;-85
2023/09/11 09:59:45;;;;;;;;;;;;;;;40.71;nan;100290.78;5026366;28;20450;-84
2023/09/11 10:02:11;;;;;;;0.00;0.00;;;;;;;40.57;nan;100280.16;5028256;28;19948;-85
2023/09/11 10:04:38;;;;;;;0.00;0.00;;;;;;;40.77;nan;100299.66;5029315;28;20038;-84
2023/09/11 10:07:03;;;;;;;0.00;0.00;;;;;;;40.75;nan;100289.69;5027568;28;20100;-83
2023/09/11 10:09:29;;;;;;;0.00;0.00;;;;;;;41.03;nan;100285.94;5012674;28;20046;-84
2023/09/11 10:11:54;;;;;;;0.00;0.00;;;;;;;41.22;nan;100281.59;5016277;28;20034;-83
2023/09/11 10:14:21;;;;;;;0.00;0.00;;;;;;;41.50;nan;100282.16;5032327;28;20053;-83
2023/09/11 10:16:46;;;;;;;0.00;0.00;;;;;;;41.83;nan;100305.75;5041902;28;20510;-85
2023/09/11 10:19:12;;;;;;;0.00;0.00;;;;;;;41.85;nan;100336.75;5031177;28;20056;-84
2023/09/11 10:21:38;;;;;;;0.00;0.00;;;;;;;42.15;nan;100316.66;5039756;28;20034;-85
2023/09/11 10:24:05;;;;;;;0.00;0.00;;;;;;;42.46;nan;100287.00;5029699;28;20038;-85
2023/09/11 10:26:49;;;;;;;0.00;0.00;;;;;;;42.46;nan;100281.44;5031627;28;20034;-84
2023/09/11 10:29:39;;;;;;;0.00;0.00;;;;;;;42.73;nan;100276.66;5021791;28;20083;-84
2023/09/11 10:32:09;;;;;;;0.00;0.00;;;;;;;42.71;nan;100274.25;5032494;28;20041;-83
2023/09/11 10:34:36;;;;;;;;;;;;;;;42.80;nan;100274.78;5026476;28;20030;-83
2023/09/11 10:37:04;;;;;;;0.00;0.00;;;;;;;43.17;nan;100306.63;5025398;28;20008;-83
2023/09/11 10:39:30;;;;;;;0.00;0.00;;;;;;;43.16;nan;100266.09;5042089;28;20033;-84
2023/09/11 10:41:55;;;;;;;0.00;0.00;;;;;;;42.76;nan;100273.91;5026404;28;20029;-84
2023/09/11 10:44:20;;;;;;;0.00;0.00;;;;;;;;;;5034658;28;20045;-84
2023/09/11 10:46:50;;;;;;;0.00;0.00;;;;;;;42.84;nan;100264.53;5032626;28;20272;-83
2023/09/11 10:49:18;;;;;;;0.00;0.00;;;;;;;43.43;nan;100305.78;5031513;28;20041;-83
2023/09/11 10:51:45;;;;;;;0.00;0.00;;;;;;;43.99;nan;100281.69;5033143;28;20093;-84
2023/09/11 10:54:11;;;;;;;0.00;0.00;;;;;;;43.94;nan;100252.19;5011616;28;20064;-85
2023/09/11 10:56:38;;;;;;;0.00;0.00;;;;;;;43.93;nan;100249.78;5013502;28;20042;-84
2023/09/11 10:59:04;;;;;;;0.00;0.00;;;;;;;44.46;nan;100246.63;4997224;28;20347;-84
2023/09/11 11:01:32;;;;;;;0.00;0.00;;;;;;;44.99;nan;100232.13;5017780;28;20089;-85
2023/09/11 11:04:01;;;;;;;0.00;0.00;;;;;;;45.05;nan;100246.50;5014968;28;20026;-85
2023/09/11 11:06:26;;;;;;;0.00;0.00;;;;;;;45.13;nan;100264.88;5017273;28;20032;-83
2023/09/11 11:08:51;;;;;;;0.00;0.00;;;;;;;45.39;nan;100219.09;5026920;28;20022;-85
2023/09/11 11:11:22;;;;;;;;;;;;;;;45.59;nan;100233.50;5036123;28;20030;-84
2023/09/11 11:14:12;;;;;;;0.00;0.00;;;;;;;45.32;nan;100221.88;5017657;28;19963;-84
2023/09/11 11:16:38;;;;;;;;;;;;;;;45.55;nan;100230.69;5034546;28;20282;-85
2023/09/11 11:19:04;;;;;;;;;;;;;;;45.67;nan;100221.09;5030250;28;19921;-84
2023/09/11 11:21:39;;;;;;;;;;;;;;;45.44;nan;100217.91;5017277;28;19925;-84
2023/09/11 11:24:05;;;;;;;;;;;;;;;45.28;nan;100216.28;5033880;28;19932;-83
2023/09/11 11:26:30;;;;;;;;;;;;;;;45.24;nan;100209.88;5031037;28;20130;-86
2023/09/11 11:28:56;;;;;;;;;;;;;;;45.33;nan;100212.28;5032675;28;20134;-84
2023/09/11 11:31:22;;;;;;;;;;;;;;;45.57;nan;100216.31;5030869;28;19917;-85
2023/09/11 11:33:48;;;;;;;;;;;;;;;45.55;nan;100213.94;5030563;28;19917;-84
2023/09/11 11:36:15;;;;;;;;;;;;;;;45.42;nan;100207.13;5031758;28;20409;-84
2023/09/11 11:38:44;;;;;;;;;;;;;;;45.46;nan;100198.72;5031312;28;20029;-84
2023/09/11 11:41:09;;;;;;;;;;;;;;;45.03;nan;100209.81;5012185;28;20309;-83
2023/09/11 11:43:35;;;;;;;;;;;;;;;44.60;nan;100204.03;5017060;28;19939;-82
2023/09/11 11:46:00;;;;;;;;;;;;;;;43.51;nan;100209.22;5034913;28;19917;-84
2023/09/11 11:48:26;;;;;;;;;;;;;;;42.54;nan;100210.88;5003981;28;20513;-84
2023/09/11 11:50:51;;;;;;;;;;;;;;;41.70;nan;100207.16;5030810;28;20020;-84
2023/09/11 11:53:18;;;;;;;;;;;;;;;41.16;nan;100206.97;5029431;28;19921;-84
2023/09/11 11:55:43;;;;;;;;;;;;;;;40.59;nan;100204.97;5029149;28;20388;-85
2023/09/11 11:58:09;;;;;;;;;;;;;;;39.68;nan;100195.69;5030643;28;19917;-84
2023/09/11 12:00:35;;;;;;;;;;;;;;;39.26;nan;100205.25;5028280;28;19917;-85
2023/09/11 12:03:04;;;;;;;;;;;;;;;38.64;nan;100199.13;5013026;28;19971;-85
2023/09/11 12:05:29;;;;;;;;;;;;;;;38.14;nan;100196.75;5032218;28;19917;-83
2023/09/11 12:07:55;;;;;;;;;;;;;;;37.95;nan;100200.06;5022870;28;20417;-83
2023/09/11 12:10:20;;;;;;;;;;;;;;;37.32;nan;100192.81;5024924;28;21445;-84
2023/09/11 12:12:45;;;;;;;;;;;;;;;36.95;nan;100198.19;5007208;28;20373;-83
2023/09/11 12:15:10;;;;;;;;;;;;;;;35.80;nan;100183.78;5027523;28;19913;-83
2023/09/11 12:17:43;;;;;;;;;;;;;;;35.52;nan;100186.94;5025764;28;20163;-84
2023/09/11 12:20:13;;;;;;;;;;;;;;;34.92;nan;100183.13;5032984;28;19940;-84
2023/09/11 12:22:38;;;;;;;;;;;;;;;34.70;nan;100186.81;5018191;28;20400;-84
2023/09/11 12:25:04;;;;;;;;;;;;;;;34.13;nan;100182.16;5016369;28;19913;-84
2023/09/11 12:27:30;;;;;;;;;;;;;;;33.92;nan;100178.34;5031570;28;20136;-83
2023/09/11 12:29:57;;;;;;;;;;;;;;;34.00;nan;100175.66;5024561;28;20031;-84
2023/09/11 12:32:22;;;;;;;;;;;;;;;34.04;nan;100178.59;5030800;28;20445;-82
2023/09/11 12:34:48;;;;;;;;;;;;;;;33.93;nan;100178.06;5032636;28;19921;-83
2023/09/11 12:37:13;;;;;;;;;;;;;;;33.90;nan;100172.41;5031587;28;19927;-83
2023/09/11 12:39:39;;;;;;;0.00;0.00;;;;;;;33.71;nan;100165.22;5028191;28;19964;-83
2023/09/11 12:42:04;;;;;;;0.00;0.00;;;;;;;33.49;nan;100189.91;5029791;28;20034;-83